Time;durP1;ratioP1;P1;durP2;ratioP2;P2;SDS_P1;SDS_P2;PMS_P1;PMS_P2;Temp;Humidity;BMP_temperature;BMP_pressure;BME280_temperature;BME280_humidity;BME280_pressure;Samples;Min_cycle;Max_cycle;Signal;HPM_P1;HPM_P2
2022/04/18 00:19:13;;;;;;;12.35;9.80;;;17.10;54.50;;;;;;3910181;30;20056;-65
2022/04/18 00:21:35;;;;;;;15.30;9.45;;;17.10;54.40;;;;;;3914891;30;20138;-65
2022/04/18 00:23:58;;;;;;;13.05;9.80;;;17.10;54.10;;;;;;3914597;30;20060;-66
2022/04/18 00:26:20;;;;;;;13.20;9.32;;;17.10;54.10;;;;;;3912215;30;20053;-66
2022/04/18 00:28:42;;;;;;;13.15;9.68;;;17.10;54.10;;;;;;3886186;30;20525;-67
2022/04/18 00:31:04;;;;;;;15.80;11.18;;;17.10;54.00;;;;;;3897397;30;20049;-67
2022/04/18 00:33:27;;;;;;;14.00;10.60;;;17.10;54.10;;;;;;3886057;30;20069;-68
2022/04/18 00:35:51;;;;;;;13.23;10.55;;;17.10;54.10;;;;;;3897116;30;20147;-67
2022/04/18 00:38:13;;;;;;;14.70;9.95;;;17.10;54.10;;;;;;3886352;30;20679;-67
2022/04/18 00:40:35;;;;;;;14.75;10.15;;;17.10;54.10;;;;;;3892433;30;20126;-67
2022/04/18 00:43:02;;;;;;;16.40;10.35;;;17.10;54.10;;;;;;3900122;30;20125;-67
2022/04/18 00:45:24;;;;;;;15.70;10.63;;;17.10;54.00;;;;;;3899703;30;20396;-67
2022/04/18 00:47:47;;;;;;;13.63;10.63;;;17.00;54.10;;;;;;3903549;30;20060;-67
2022/04/18 00:50:10;;;;;;;16.88;11.38;;;17.00;54.00;;;;;;3914746;30;20404;-67
2022/04/18 00:52:34;;;;;;;15.05;10.43;;;17.00;54.10;;;;;;3901486;30;20063;-67
2022/04/18 00:54:58;;;;;;;15.90;10.45;;;17.00;54.00;;;;;;3914213;30;20052;-67
2022/04/18 00:57:20;;;;;;;18.65;10.80;;;17.00;54.80;;;;;;3898958;30;20070;-67
2022/04/18 00:59:44;;;;;;;15.68;10.77;;;17.00;54.10;;;;;;3899101;30;20053;-67
2022/04/18 01:02:09;;;;;;;17.25;11.80;;;17.00;54.10;;;;;;3899965;30;20398;-67
2022/04/18 01:04:31;;;;;;;16.48;11.48;;;17.00;54.20;;;;;;3898957;30;20173;-66
2022/04/18 01:06:53;;;;;;;17.38;10.93;;;17.00;54.10;;;;;;3899686;30;20063;-67
2022/04/18 01:09:18;;;;;;;17.42;11.15;;;16.90;54.10;;;;;;3899724;30;20064;-67
2022/04/18 01:11:41;;;;;;;15.77;10.63;;;16.90;54.00;;;;;;3899250;30;20111;-67
2022/04/18 01:14:21;;;;;;;17.50;11.93;;;16.90;54.20;;;;;;3898790;30;20053;-66
2022/04/18 01:16:46;;;;;;;15.13;11.02;;;16.90;54.30;;;;;;3899506;30;20603;-67
2022/04/18 01:19:15;;;;;;;15.20;10.65;;;16.90;54.30;;;;;;3884112;30;20065;-66
2022/04/18 01:21:58;;;;;;;15.20;11.43;;;16.90;54.30;;;;;;3885227;30;20053;-66
2022/04/18 01:30:11;;;;;;;16.63;11.13;;;16.80;54.40;;;;;;3857651;30;20058;-67
2022/04/18 01:32:34;;;;;;;15.95;11.80;;;16.80;54.50;;;;;;3870016;30;20431;-67
2022/04/18 01:34:57;;;;;;;16.60;11.52;;;16.80;54.60;;;;;;3869923;30;20053;-67
2022/04/18 01:37:21;;;;;;;16.35;11.27;;;16.80;54.50;;;;;;3883663;30;20540;-66
2022/04/18 01:39:43;;;;;;;15.15;10.85;;;16.80;54.40;;;;;;3883510;30;20080;-67
2022/04/18 01:42:05;;;;;;;18.08;10.65;;;16.80;54.40;;;;;;3883907;30;20056;-67
2022/04/18 01:44:28;;;;;;;18.45;11.30;;;16.80;54.50;;;;;;3884079;30;20085;-67
2022/04/18 01:46:51;;;;;;;15.35;10.68;;;16.80;54.50;;;;;;3884838;30;20053;-66
2022/04/18 01:49:13;;;;;;;16.85;11.00;;;16.80;54.30;;;;;;3885117;30;20060;-67
2022/04/18 01:51:35;;;;;;;16.85;10.48;;;16.80;54.40;;;;;;3885258;30;20061;-66
2022/04/18 01:54:02;;;;;;;18.83;11.35;;;16.70;54.40;;;;;;3883287;30;20096;-66
2022/04/18 01:56:25;;;;;;;17.45;11.30;;;16.70;54.30;;;;;;3883964;30;20085;-66
2022/04/18 01:58:48;;;;;;;18.95;12.25;;;16.70;54.30;;;;;;3883365;30;20061;-67
2022/04/18 02:01:10;;;;;;;16.90;10.82;;;16.70;54.40;;;;;;3883925;30;20116;-66
2022/04/18 02:03:33;;;;;;;18.90;11.15;;;16.70;54.50;;;;;;3883966;30;20061;-67
2022/04/18 02:05:55;;;;;;;15.65;10.98;;;16.70;55.30;;;;;;3870803;30;20120;-66
2022/04/18 02:08:19;;;;;;;16.08;12.05;;;16.70;54.50;;;;;;3869366;30;20082;-67
2022/04/18 02:10:42;;;;;;;16.40;11.40;;;16.70;54.60;;;;;;3869763;30;20446;-67
2022/04/18 02:13:07;;;;;;;15.13;11.10;;;16.70;54.60;;;;;;3868932;30;20061;-67
2022/04/18 02:15:30;;;;;;;18.75;12.02;;;16.60;54.60;;;;;;3857929;30;20051;-67
2022/04/18 02:17:56;;;;;;;18.50;11.02;;;16.60;54.60;;;;;;3878423;30;20080;-66
2022/04/18 02:20:19;;;;;;;13.98;10.43;;;16.60;54.50;;;;;;3900631;30;20539;-67
2022/04/18 02:22:40;;;;;;;15.82;11.05;;;16.60;54.40;;;;;;3900194;30;20138;-66
2022/04/18 02:25:03;;;;;;;14.45;10.85;;;16.60;54.60;;;;;;3895474;30;20053;-66
2022/04/18 02:27:27;;;;;;;18.95;11.90;;;16.60;54.70;;;;;;3884829;30;20111;-67
2022/04/18 02:29:50;;;;;;;15.50;10.95;;;16.60;54.70;;;;;;3883725;30;21022;-66
2022/04/18 02:34:52;;;;;;;18.27;11.82;;;16.50;54.20;;;;;;3890006;30;20188;-66
2022/04/18 02:37:14;;;;;;;18.02;11.32;;;16.50;54.50;;;;;;3898856;30;20461;-66
2022/04/18 02:39:36;;;;;;;16.33;10.95;;;16.50;54.50;;;;;;3885141;30;20085;-67
2022/04/18 02:41:58;;;;;;;15.25;11.45;;;16.50;54.50;;;;;;3897698;30;20057;-66
2022/04/18 02:44:26;;;;;;;13.13;10.48;;;16.50;55.10;;;;;;3895498;30;20053;-66
2022/04/18 02:46:48;;;;;;;17.73;11.10;;;16.50;55.40;;;;;;3897412;30;20061;-66
2022/04/18 02:49:10;;;;;;;15.10;10.88;;;16.40;54.70;;;;;;3899391;30;20063;-66
2022/04/18 02:51:32;;;;;;;16.67;11.23;;;16.50;55.60;;;;;;3913040;30;20060;-66
2022/04/18 02:54:01;;;;;;;12.98;10.32;;;16.40;54.80;;;;;;3884793;30;20140;-66
2022/04/18 02:56:24;;;;;;;16.35;10.90;;;16.40;54.90;;;;;;3897507;30;20579;-66
2022/04/18 02:58:46;;;;;;;14.65;10.70;;;16.40;54.90;;;;;;3897702;30;20509;-66
2022/04/18 03:01:10;;;;;;;13.85;11.20;;;16.40;54.90;;;;;;3896942;30;20081;-67
2022/04/18 03:03:33;;;;;;;14.43;10.73;;;16.40;54.80;;;;;;3890987;30;20205;-66
2022/04/18 03:05:57;;;;;;;19.75;11.65;;;16.40;54.60;;;;;;3893788;30;20588;-67
2022/04/18 03:08:20;;;;;;;15.13;10.48;;;16.40;54.70;;;;;;3883618;30;20049;-66
2022/04/18 03:13:23;;;;;;;;;;;16.30;54.70;;;;;;3892821;30;20145;-69
2022/04/18 03:15:46;;;;;;;16.23;10.80;;;16.30;54.50;;;;;;3896989;30;19937;-68
2022/04/18 03:18:09;;;;;;;17.30;10.77;;;16.30;55.30;;;;;;3901617;30;20125;-69
2022/04/18 03:20:32;;;;;;;16.88;10.77;;;16.30;55.70;;;;;;3912435;30;20134;-67
2022/04/18 03:22:54;;;;;;;17.20;10.77;;;16.30;55.00;;;;;;3906869;30;20417;-67
2022/04/18 03:25:34;;;;;;;13.23;10.10;;;16.20;55.00;;;;;;3897036;30;20049;-66
2022/04/18 03:27:57;;;;;;;17.48;10.75;;;16.20;55.10;;;;;;3897126;30;20068;-67
2022/04/18 03:30:19;;;;;;;17.83;10.52;;;16.20;55.20;;;;;;3897874;30;20053;-67
2022/04/18 03:32:42;;;;;;;16.35;10.88;;;16.20;55.20;;;;;;3896410;30;20072;-66
2022/04/18 03:35:07;;;;;;;15.52;10.32;;;16.20;55.20;;;;;;3897148;30;20076;-67
2022/04/18 03:40:10;;;;;;;16.20;11.00;;;16.10;55.10;;;;;;3896580;30;20064;-67
2022/04/18 03:42:32;;;;;;;14.88;11.25;;;16.20;55.20;;;;;;3896856;30;20053;-66
2022/04/18 03:45:00;;;;;;;15.05;10.90;;;16.20;55.10;;;;;;3883952;30;20142;-66
2022/04/18 03:47:22;;;;;;;15.95;10.27;;;16.20;55.10;;;;;;3899137;30;20049;-66
2022/04/18 03:49:45;;;;;;;13.57;10.43;;;16.20;55.10;;;;;;3899020;30;20545;-66
2022/04/18 03:52:10;;;;;;;15.93;10.70;;;16.10;55.00;;;;;;3904794;30;20123;-66
2022/04/18 03:54:34;;;;;;;14.35;9.95;;;16.10;55.00;;;;;;3890243;30;20114;-66
2022/04/18 03:56:57;;;;;;;17.73;10.25;;;16.10;55.00;;;;;;3899402;30;20114;-66
2022/04/18 03:59:19;;;;;;;14.32;9.77;;;16.10;54.60;;;;;;3900508;30;20394;-66
2022/04/18 04:01:57;;;;;;;13.30;9.75;;;16.10;54.60;;;;;;3900029;30;20068;-66
2022/04/18 04:04:21;;;;;;;13.88;10.05;;;16.10;54.50;;;;;;3899649;30;20463;-67
2022/04/18 04:06:44;;;;;;;14.13;10.48;;;16.10;54.60;;;;;;3898973;30;20068;-66
2022/04/18 04:09:07;;;;;;;14.80;10.35;;;16.10;54.90;;;;;;3899347;30;20148;-66
2022/04/18 04:11:30;;;;;;;15.77;10.30;;;16.00;54.90;;;;;;3899050;30;20507;-66
2022/04/18 04:13:53;;;;;;;14.98;10.75;;;16.00;55.10;;;;;;3873224;30;20063;-67
2022/04/18 04:16:15;;;;;;;15.25;10.40;;;16.00;55.10;;;;;;3885417;30;20438;-66
2022/04/18 04:18:38;;;;;;;14.82;10.77;;;16.00;55.20;;;;;;3905105;30;20053;-66
2022/04/18 04:21:03;;;;;;;14.13;10.70;;;16.00;55.40;;;;;;3914571;30;20067;-66
2022/04/18 04:23:25;;;;;;;15.50;10.23;;;16.00;55.50;;;;;;3901822;30;20767;-66
2022/04/18 04:26:23;;;;;;;13.77;10.15;;;16.00;55.60;;;;;;3900249;30;20199;-66
2022/04/18 04:28:47;;;;;;;14.85;10.70;;;16.00;55.80;;;;;;3887408;30;20118;-67
2022/04/18 04:31:18;;;;;;;15.67;10.93;;;16.00;55.80;;;;;;3899265;30;20061;-66
2022/04/18 04:33:40;;;;;;;12.98;9.70;;;16.00;55.80;;;;;;3897294;30;20298;-66
2022/04/18 04:36:04;;;;;;;13.10;9.70;;;16.00;55.80;;;;;;3885223;30;20487;-66
2022/04/18 04:38:26;;;;;;;14.77;10.55;;;16.00;55.80;;;;;;3885198;30;20058;-66
2022/04/18 04:40:50;;;;;;;12.35;8.88;;;16.00;55.80;;;;;;3886253;30;20603;-66
2022/04/18 04:43:45;;;;;;;14.90;10.15;;;16.00;55.80;;;;;;3896829;30;20210;-66
2022/04/18 04:46:11;;;;;;;11.82;9.10;;;16.00;56.00;;;;;;3899184;30;20647;-66
2022/04/18 04:48:56;;;;;;;16.48;10.45;;;15.90;55.80;;;;;;3900207;30;20049;-66
2022/04/18 04:51:18;;;;;;;11.93;9.27;;;15.90;55.80;;;;;;3899069;30;20061;-66
2022/04/18 04:53:41;;;;;;;14.82;9.02;;;15.90;55.70;;;;;;3899252;30;20060;-65
2022/04/18 04:56:06;;;;;;;14.00;9.60;;;15.90;55.80;;;;;;3898917;30;20052;-66
2022/04/18 04:58:32;;;;;;;11.93;8.93;;;15.90;55.90;;;;;;3898675;30;20052;-66
2022/04/18 05:00:59;;;;;;;14.55;9.40;;;15.90;55.80;;;;;;3899242;30;20053;-66
2022/04/18 05:03:26;;;;;;;12.82;9.38;;;15.90;55.80;;;;;;3898966;30;20061;-66
2022/04/18 05:05:48;;;;;;;11.55;9.73;;;15.90;55.70;;;;;;3899305;30;20052;-65
2022/04/18 05:08:25;;;;;;;13.40;9.23;;;15.90;55.80;;;;;;3898315;30;20132;-65
2022/04/18 05:10:47;;;;;;;13.25;9.45;;;15.90;55.80;;;;;;3896285;30;20575;-65
2022/04/18 05:13:16;;;;;;;13.15;9.57;;;15.90;55.70;;;;;;3896278;30;20063;-65
2022/04/18 05:15:41;;;;;;;11.85;9.13;;;15.90;55.70;;;;;;3884709;30;20069;-65
2022/04/18 05:18:27;;;;;;;12.75;9.40;;;15.90;55.60;;;;;;3906551;30;20106;-65
2022/04/18 05:20:49;;;;;;;13.88;9.82;;;16.00;55.60;;;;;;3907919;30;20099;-66
2022/04/18 05:23:16;;;;;;;11.35;8.82;;;16.00;55.40;;;;;;3898444;30;20531;-66
2022/04/18 05:25:38;;;;;;;11.77;9.07;;;16.00;55.30;;;;;;3899857;30;20068;-65
2022/04/18 05:28:00;;;;;;;13.50;10.13;;;16.00;55.20;;;;;;3899796;30;20060;-66
2022/04/18 05:30:31;;;;;;;13.02;9.63;;;16.10;55.20;;;;;;3895741;30;20516;-66
2022/04/18 05:32:53;;;;;;;12.52;9.23;;;16.10;55.10;;;;;;3883983;30;20121;-66
2022/04/18 05:35:16;;;;;;;12.40;8.68;;;16.10;55.00;;;;;;3896534;30;20141;-66
2022/04/18 05:37:40;;;;;;;12.98;9.55;;;16.10;54.90;;;;;;3896936;30;20057;-66
2022/04/18 05:40:20;;;;;;;12.88;10.25;;;16.10;55.00;;;;;;3888666;30;20533;-66
2022/04/18 05:42:44;;;;;;;11.80;8.85;;;16.10;54.90;;;;;;3898631;30;20131;-65
2022/04/18 05:45:11;;;;;;;13.88;9.35;;;16.20;55.90;;;;;;3897861;30;20139;-65
2022/04/18 05:47:36;;;;;;;14.07;10.30;;;16.20;55.30;;;;;;3900158;30;20064;-65
2022/04/18 05:50:00;;;;;;;13.63;9.38;;;16.20;55.40;;;;;;3897862;30;20060;-66
2022/04/18 05:52:25;;;;;;;14.27;9.82;;;16.20;55.40;;;;;;3895704;30;20140;-67
2022/04/18 05:54:53;;;;;;;13.57;10.02;;;16.20;55.40;;;;;;3883815;30;20049;-67
2022/04/18 05:57:16;;;;;;;12.77;10.02;;;16.20;55.10;;;;;;3884094;30;20166;-67
2022/04/18 05:59:43;;;;;;;15.52;10.68;;;16.30;55.10;;;;;;3899960;30;20067;-67
2022/04/18 06:02:14;;;;;;;13.05;10.48;;;16.30;54.80;;;;;;3898221;30;20154;-67
2022/04/18 06:04:43;;;;;;;17.83;10.93;;;16.30;54.80;;;;;;3899009;30;20056;-67
2022/04/18 06:07:30;;;;;;;17.00;10.38;;;16.30;54.90;;;;;;3898257;30;20060;-67
2022/04/18 06:10:12;;;;;;;12.15;9.57;;;16.20;54.70;;;;;;3898290;30;20049;-67
2022/04/18 06:12:34;;;;;;;16.50;10.50;;;16.20;54.60;;;;;;3898125;30;20064;-68
2022/04/18 06:14:57;;;;;;;14.13;9.75;;;16.20;54.20;;;;;;3899091;30;20396;-67
2022/04/18 06:17:19;;;;;;;15.13;9.48;;;16.20;53.70;;;;;;3897369;30;20081;-67
2022/04/18 06:19:42;;;;;;;14.52;10.70;;;16.20;53.50;;;;;;3912471;30;20063;-67
2022/04/18 06:22:05;;;;;;;11.68;8.93;;;16.20;53.40;;;;;;3912514;30;20066;-67
2022/04/18 06:24:29;;;;;;;11.13;9.38;;;16.20;53.10;;;;;;3912080;30;20114;-69
2022/04/18 06:27:00;;;;;;;11.63;9.27;;;16.30;53.20;;;;;;3911637;30;20060;-68
2022/04/18 06:29:24;;;;;;;13.95;9.65;;;16.30;52.80;;;;;;3912068;30;20060;-68
2022/04/18 06:31:49;;;;;;;12.73;9.43;;;16.30;52.30;;;;;;3913138;30;20064;-68
2022/04/18 06:34:12;;;;;;;11.38;8.90;;;16.40;52.30;;;;;;3905056;30;20462;-68
2022/04/18 06:36:35;;;;;;;12.35;9.48;;;16.40;53.40;;;;;;3897484;30;20492;-67
2022/04/18 06:39:23;;;;;;;13.77;8.98;;;16.40;52.80;;;;;;3897627;30;20056;-67
2022/04/18 06:42:00;;;;;;;11.98;9.10;;;16.50;52.50;;;;;;3897448;30;20065;-67
2022/04/18 06:44:28;;;;;;;11.63;8.55;;;16.50;52.80;;;;;;3897112;30;20052;-67
2022/04/18 06:46:51;;;;;;;13.60;9.00;;;16.50;52.60;;;;;;3897484;30;20064;-67
2022/04/18 06:49:51;;;;;;;12.57;8.48;;;16.60;52.60;;;;;;3899592;30;20056;-67
2022/04/18 06:52:39;;;;;;;11.63;8.98;;;16.60;52.50;;;;;;3902160;30;20068;-67
2022/04/18 06:55:20;;;;;;;12.43;8.82;;;16.60;52.50;;;;;;3899289;30;20084;-67
2022/04/18 06:57:43;;;;;;;12.75;8.50;;;16.70;52.10;;;;;;3894205;30;20095;-67
2022/04/18 07:00:07;;;;;;;11.98;8.57;;;16.70;52.10;;;;;;3897325;30;20053;-67
2022/04/18 07:02:29;;;;;;;11.63;8.75;;;16.80;51.90;;;;;;3898198;30;20088;-67
2022/04/18 07:04:53;;;;;;;12.02;8.85;;;16.80;51.50;;;;;;3897083;30;20060;-67
2022/04/18 07:07:16;;;;;;;15.27;9.18;;;16.80;52.10;;;;;;3884412;30;20073;-66
2022/04/18 07:09:38;;;;;;;11.50;8.73;;;16.90;52.00;;;;;;3885238;30;20736;-67
2022/04/18 07:12:07;;;;;;;14.00;9.43;;;16.90;52.30;;;;;;3884684;30;20230;-67
2022/04/18 07:14:31;;;;;;;13.60;9.07;;;16.90;51.50;;;;;;3892449;30;20056;-67
2022/04/18 07:16:55;;;;;;;11.70;8.98;;;17.00;51.50;;;;;;3897204;30;20073;-67
2022/04/18 07:19:20;;;;;;;12.88;8.93;;;17.00;51.00;;;;;;3896716;30;20071;-67
2022/04/18 07:21:43;;;;;;;14.73;8.98;;;17.00;51.00;;;;;;3897106;30;20517;-67
2022/04/18 07:24:06;;;;;;;13.10;9.40;;;17.00;51.20;;;;;;3897091;30;20142;-66
2022/04/18 07:26:29;;;;;;;13.88;8.10;;;17.00;51.20;;;;;;3898569;30;20448;-66
2022/04/18 07:28:51;;;;;;;14.65;7.72;;;17.10;50.80;;;;;;3870546;30;20078;-67
2022/04/18 07:31:15;;;;;;;12.00;8.30;;;17.10;49.80;;;;;;3891561;30;20060;-66
2022/04/18 07:33:38;;;;;;;12.82;8.25;;;17.10;50.10;;;;;;3897282;30;20061;-66
2022/04/18 07:36:03;;;;;;;9.85;7.38;;;17.10;49.30;;;;;;3896861;30;20068;-66
2022/04/18 07:41:23;;;;;;;13.55;9.32;;;17.20;49.30;;;;;;3855057;30;20071;-66
2022/04/18 07:43:46;;;;;;;11.95;7.93;;;17.20;49.40;;;;;;3894283;30;20480;-66
2022/04/18 07:46:08;;;;;;;16.83;8.95;;;17.20;49.10;;;;;;3896945;30;20063;-66
2022/04/18 07:48:33;;;;;;;10.32;8.20;;;17.20;49.20;;;;;;3895561;30;20053;-66
2022/04/18 07:53:35;;;;;;;12.73;8.05;;;17.30;49.40;;;;;;3899209;30;20057;-66
2022/04/18 07:55:57;;;;;;;13.18;8.98;;;17.30;49.90;;;;;;3890976;30;20609;-65
2022/04/18 07:58:21;;;;;;;13.45;8.60;;;17.30;49.40;;;;;;3893215;30;20076;-66
2022/04/18 08:00:44;;;;;;;12.38;8.60;;;17.30;49.10;;;;;;3897015;30;20063;-66
2022/04/18 08:03:07;;;;;;;8.88;7.80;;;17.40;49.20;;;;;;3897170;30;20060;-66
2022/04/18 08:05:46;;;;;;;10.07;7.53;;;17.40;48.50;;;;;;3896615;30;20071;-66
2022/04/18 08:08:11;;;;;;;13.45;8.30;;;17.40;48.80;;;;;;3895238;30;20063;-65
2022/04/18 08:10:36;;;;;;;10.68;7.80;;;17.40;49.20;;;;;;3896472;30;20445;-66
2022/04/18 08:13:01;;;;;;;9.80;8.07;;;17.50;49.00;;;;;;3896313;30;20061;-67
2022/04/18 08:15:32;;;;;;;8.98;6.57;;;17.40;48.00;;;;;;3896407;30;20057;-66
2022/04/18 08:17:55;;;;;;;12.70;8.38;;;17.40;49.20;;;;;;3894731;30;20060;-66
2022/04/18 08:20:37;;;;;;;11.55;7.60;;;17.50;49.90;;;;;;3881875;30;20060;-65
2022/04/18 08:23:01;;;;;;;10.90;7.47;;;17.50;49.60;;;;;;3882361;30;20060;-66
2022/04/18 08:25:42;;;;;;;13.25;7.35;;;17.50;48.90;;;;;;3882630;30;20064;-66
2022/04/18 08:28:37;;;;;;;8.43;7.25;;;17.60;48.90;;;;;;3882209;30;20570;-66
2022/04/18 08:31:00;;;;;;;10.05;6.82;;;17.60;48.90;;;;;;3881788;30;20074;-66
2022/04/18 08:33:40;;;;;;;;;;;17.60;48.60;;;;;;3878703;30;20057;-65
2022/04/18 08:36:03;;;;;;;10.40;7.22;;;17.60;48.20;;;;;;3881776;30;19927;-65
2022/04/18 08:38:27;;;;;;;9.52;6.70;;;17.60;49.70;;;;;;3882332;30;20057;-65
2022/04/18 08:41:11;;;;;;;11.55;7.22;;;17.60;48.90;;;;;;3884046;30;20060;-65
2022/04/18 08:43:36;;;;;;;11.45;6.93;;;17.60;48.30;;;;;;3884799;30;20119;-66
2022/04/18 08:45:58;;;;;;;9.30;6.70;;;17.60;48.20;;;;;;3884349;30;20127;-65
2022/04/18 08:53:41;;;;;;;10.30;6.88;;;17.70;48.60;;;;;;3884514;30;20096;-65
2022/04/18 08:56:05;;;;;;;8.73;6.80;;;17.70;48.10;;;;;;3884045;30;20114;-65
2022/04/18 08:58:30;;;;;;;7.25;6.55;;;17.70;48.60;;;;;;3883872;30;20148;-67
2022/04/18 09:00:53;;;;;;;10.70;7.13;;;17.70;48.40;;;;;;3884212;30;20061;-66
2022/04/18 09:03:39;;;;;;;9.32;6.53;;;17.70;47.40;;;;;;3884856;30;20149;-66
2022/04/18 09:06:10;;;;;;;7.63;6.07;;;17.80;47.70;;;;;;3884073;30;20482;-65
2022/04/18 09:08:46;;;;;;;9.38;6.78;;;17.80;48.70;;;;;;3884229;30;20152;-66
2022/04/18 09:11:09;;;;;;;9.48;7.22;;;17.80;48.50;;;;;;3895971;30;20407;-66
2022/04/18 09:13:31;;;;;;;9.10;6.95;;;17.80;48.30;;;;;;3884262;30;20144;-65
2022/04/18 09:15:56;;;;;;;9.32;6.43;;;17.80;47.80;;;;;;3884101;30;20502;-66
2022/04/18 09:18:20;;;;;;;8.73;6.72;;;17.80;48.10;;;;;;3883836;30;20092;-66
2022/04/18 09:20:47;;;;;;;7.72;5.80;;;17.80;49.20;;;;;;3886292;30;20193;-65
2022/04/18 09:23:22;;;;;;;7.57;5.35;;;17.80;49.30;;;;;;3898596;30;20164;-65
2022/04/18 09:25:47;;;;;;;7.20;6.03;;;17.90;49.70;;;;;;3894514;30;20071;-66
2022/04/18 09:28:12;;;;;;;9.48;6.43;;;17.90;49.40;;;;;;3898371;30;20429;-66
2022/04/18 09:30:34;;;;;;;12.10;6.75;;;17.90;48.50;;;;;;3898271;30;20076;-66
2022/04/18 09:32:58;;;;;;;8.25;6.75;;;18.00;47.30;;;;;;3898202;30;20065;-67
2022/04/18 09:35:27;;;;;;;10.68;6.88;;;18.00;48.00;;;;;;3896169;30;20052;-68
2022/04/18 09:37:53;;;;;;;9.85;6.68;;;18.00;48.10;;;;;;3897949;30;20080;-67
2022/04/18 09:40:37;;;;;;;10.10;7.20;;;18.10;46.90;;;;;;3898164;30;20086;-73
2022/04/18 09:43:02;;;;;;;11.45;7.13;;;18.10;47.80;;;;;;3897869;30;20091;-67
2022/04/18 09:45:27;;;;;;;14.15;6.35;;;18.10;47.30;;;;;;3897795;30;20061;-66
2022/04/18 09:47:55;;;;;;;6.45;5.28;;;18.20;47.10;;;;;;3899559;30;20471;-66
2022/04/18 09:50:58;;;;;;;7.50;5.88;;;18.20;48.00;;;;;;3897869;30;20073;-65
2022/04/18 09:53:17;;;;;;;8.50;5.90;;;18.20;48.00;;;;;;3898522;30;20493;-65
2022/04/18 09:55:44;;;;;;;7.65;6.68;;;18.20;47.30;;;;;;3899441;30;20072;-65
2022/04/18 09:58:08;;;;;;;8.48;6.60;;;18.30;47.90;;;;;;3898102;30;20114;-66
2022/04/18 10:00:51;;;;;;;8.43;5.40;;;18.30;48.00;;;;;;3896867;30;20068;-66
2022/04/18 10:03:14;;;;;;;7.07;5.50;;;18.30;47.80;;;;;;3896020;30;20057;-67
2022/04/18 10:05:36;;;;;;;9.60;6.45;;;18.40;48.40;;;;;;3897864;30;20057;-66
2022/04/18 10:08:03;;;;;;;7.13;6.43;;;18.40;47.80;;;;;;3896566;30;20067;-66
2022/04/18 10:10:25;;;;;;;7.82;6.07;;;18.40;48.50;;;;;;3896851;30;20060;-66
2022/04/18 10:12:47;;;;;;;6.90;5.93;;;18.40;48.10;;;;;;3901014;30;20146;-66
2022/04/18 10:15:11;;;;;;;16.25;6.90;;;18.40;48.30;;;;;;3898686;30;20057;-65
2022/04/18 10:17:36;;;;;;;7.88;6.55;;;18.50;48.30;;;;;;3900525;30;20091;-66
2022/04/18 10:20:10;;;;;;;8.02;5.88;;;18.50;48.20;;;;;;3898692;30;20135;-66
2022/04/18 10:22:59;;;;;;;7.95;5.47;;;18.50;47.50;;;;;;3899911;30;20395;-66
2022/04/18 10:25:33;;;;;;;24.77;7.82;;;18.60;48.10;;;;;;3899015;30;20060;-66
2022/04/18 10:28:14;;;;;;;6.95;5.55;;;18.60;48.30;;;;;;3898958;30;20103;-66
2022/04/18 10:30:42;;;;;;;6.35;5.68;;;18.60;47.50;;;;;;3897249;30;20052;-65
2022/04/18 10:33:05;;;;;;;6.60;5.05;;;18.70;47.80;;;;;;3897533;30;20080;-66
2022/04/18 10:35:27;;;;;;;6.30;4.70;;;18.70;47.70;;;;;;3898829;30;20079;-66
2022/04/18 10:37:53;;;;;;;9.80;5.88;;;18.70;47.30;;;;;;3897209;30;20060;-64
2022/04/18 10:40:18;;;;;;;8.00;5.72;;;18.70;47.60;;;;;;3895332;30;20057;-64
2022/04/18 10:42:41;;;;;;;8.63;5.45;;;18.80;47.30;;;;;;3898367;30;20498;-64
2022/04/18 10:45:08;;;;;;;7.30;5.32;;;18.80;47.30;;;;;;3898822;30;20144;-65
2022/04/18 10:48:02;;;;;;;6.70;5.57;;;18.80;47.30;;;;;;3899715;30;20456;-65
2022/04/18 10:50:27;;;;;;;5.82;5.32;;;18.90;46.80;;;;;;3900621;30;20437;-64
2022/04/18 10:53:09;;;;;;;4.90;4.40;;;18.90;46.00;;;;;;3898930;30;20060;-63
2022/04/18 10:55:31;;;;;;;6.07;5.47;;;18.90;45.40;;;;;;3898508;30;20057;-64
2022/04/18 10:58:13;;;;;;;7.25;5.10;;;18.90;43.90;;;;;;3898629;30;20065;-64
2022/04/18 11:00:47;;;;;;;6.65;5.00;;;19.00;44.00;;;;;;3898542;30;20049;-65
2022/04/18 11:03:11;;;;;;;7.80;4.97;;;19.00;44.50;;;;;;3881730;30;20480;-65
2022/04/18 11:05:36;;;;;;;7.00;4.78;;;19.00;44.40;;;;;;3883644;30;20061;-65
2022/04/18 11:07:59;;;;;;;4.72;4.28;;;19.10;44.70;;;;;;3884483;30;20045;-65
2022/04/18 11:10:23;;;;;;;5.15;4.65;;;19.10;43.80;;;;;;3883979;30;20060;-65
2022/04/18 11:12:46;;;;;;;6.13;5.22;;;19.10;43.00;;;;;;3884344;30;20455;-65
2022/04/18 11:15:09;;;;;;;6.22;4.70;;;19.10;45.40;;;;;;3884157;30;20053;-65
2022/04/18 11:17:33;;;;;;;5.93;4.32;;;19.10;44.00;;;;;;3884092;30;20414;-65
2022/04/18 11:19:57;;;;;;;6.50;4.80;;;19.20;42.90;;;;;;3897778;30;20584;-65
2022/04/18 11:22:20;;;;;;;5.97;4.53;;;19.20;41.70;;;;;;3898539;30;20140;-65
2022/04/18 11:24:44;;;;;;;8.10;5.10;;;19.20;43.20;;;;;;3898386;30;20061;-65
2022/04/18 11:27:09;;;;;;;5.05;4.50;;;19.20;43.50;;;;;;3897926;30;20057;-65
2022/04/18 11:29:31;;;;;;;6.57;4.47;;;19.20;42.40;;;;;;3897316;30;20052;-65
2022/04/18 11:31:53;;;;;;;5.55;5.00;;;19.30;42.50;;;;;;3903895;30;20065;-65
2022/04/18 11:34:18;;;;;;;9.68;4.40;;;19.30;43.00;;;;;;3912292;30;20514;-70
2022/04/18 11:36:45;;;;;;;7.07;4.45;;;19.30;43.00;;;;;;3909591;30;20063;-65
2022/04/18 11:39:07;;;;;;;7.13;4.50;;;19.30;42.60;;;;;;3898413;30;20059;-66
2022/04/18 11:41:29;;;;;;;5.13;4.13;;;19.30;41.50;;;;;;3895876;30;20902;-65
2022/04/18 11:43:58;;;;;;;5.38;4.10;;;19.30;41.50;;;;;;3906642;30;20053;-65
2022/04/18 11:46:20;;;;;;;6.18;4.85;;;19.40;42.30;;;;;;3905079;30;20111;-65
2022/04/18 11:48:43;;;;;;;4.18;3.47;;;19.40;42.80;;;;;;3909602;30;20065;-65
2022/04/18 11:51:05;;;;;;;4.40;3.80;;;19.40;43.00;;;;;;3909709;30;20056;-65
2022/04/18 11:53:33;;;;;;;9.70;4.18;;;19.50;43.00;;;;;;3895936;30;20070;-64
2022/04/18 11:55:55;;;;;;;6.80;4.55;;;19.50;43.90;;;;;;3906558;30;20409;-64
2022/04/18 11:58:20;;;;;;;5.60;4.40;;;19.50;43.80;;;;;;3902890;30;20555;-65
2022/04/18 12:08:46;;;;;;;4.32;3.92;;;19.60;43.50;;;;;;3909110;30;20065;-64
2022/04/18 12:11:08;;;;;;;5.70;3.95;;;19.60;44.30;;;;;;3896061;30;20069;-65
2022/04/18 12:13:31;;;;;;;5.55;3.55;;;19.60;43.50;;;;;;3908128;30;20142;-65
2022/04/18 12:15:53;;;;;;;4.68;3.50;;;19.60;43.30;;;;;;3896520;30;20061;-65
2022/04/18 12:18:16;;;;;;;7.70;4.63;;;19.60;42.40;;;;;;3903294;30;20060;-65
2022/04/18 12:20:42;;;;;;;6.20;4.13;;;19.70;42.30;;;;;;3899233;30;20061;-65
2022/04/18 12:23:05;;;;;;;5.80;4.25;;;19.70;41.70;;;;;;3898676;30;20060;-65
2022/04/18 12:25:30;;;;;;;3.83;3.47;;;19.70;42.20;;;;;;3911368;30;20420;-65
2022/04/18 12:27:52;;;;;;;5.28;4.07;;;19.70;42.70;;;;;;3891048;30;20095;-65
2022/04/18 12:30:14;;;;;;;6.00;4.00;;;19.80;42.80;;;;;;3898379;30;20450;-65
2022/04/18 12:32:38;;;;;;;4.95;4.20;;;19.80;42.50;;;;;;3899199;30;20088;-65
2022/04/18 12:35:00;;;;;;;5.82;4.38;;;19.70;42.20;;;;;;3911761;30;20064;-64
2022/04/18 12:37:26;;;;;;;4.38;3.97;;;19.80;40.40;;;;;;3911893;30;20071;-64
2022/04/18 12:39:49;;;;;;;5.10;4.38;;;19.80;38.60;;;;;;3898553;30;20044;-64
2022/04/18 12:42:14;;;;;;;5.93;4.90;;;19.80;39.50;;;;;;3898578;30;20061;-64
2022/04/18 12:44:39;;;;;;;6.60;4.50;;;19.90;39.80;;;;;;3898484;30;20091;-64
2022/04/18 12:47:15;;;;;;;5.80;4.05;;;19.90;38.60;;;;;;3897730;30;20483;-64
2022/04/18 12:49:38;;;;;;;4.00;3.28;;;19.90;38.70;;;;;;3911628;30;20596;-64
2022/04/18 12:52:07;;;;;;;4.75;3.97;;;19.90;40.40;;;;;;3911854;30;20151;-65
2022/04/18 12:54:29;;;;;;;4.88;3.88;;;19.90;41.40;;;;;;3911854;30;20068;-65
2022/04/18 12:56:52;;;;;;;5.38;4.40;;;20.00;41.50;;;;;;3912019;30;20075;-64
2022/04/18 12:59:23;;;;;;;4.50;4.10;;;20.00;40.90;;;;;;3911888;30;20068;-65
2022/04/18 13:01:44;;;;;;;6.80;4.57;;;20.00;40.40;;;;;;3885150;30;20139;-64
2022/04/18 13:04:21;;;;;;;4.53;4.13;;;20.00;40.80;;;;;;3911531;30;20114;-65
2022/04/18 13:06:43;;;;;;;4.93;4.20;;;20.10;40.00;;;;;;3907471;30;20060;-65
2022/04/18 13:09:06;;;;;;;4.13;3.83;;;20.10;41.20;;;;;;3898095;30;20529;-65
2022/04/18 13:11:42;;;;;;;5.63;4.47;;;20.10;41.40;;;;;;3911674;30;20064;-64
2022/04/18 13:14:05;;;;;;;4.18;3.85;;;20.10;40.50;;;;;;3903751;30;20052;-65
2022/04/18 13:16:29;;;;;;;5.38;4.20;;;20.20;41.90;;;;;;3897828;30;20476;-65
2022/04/18 13:19:00;;;;;;;4.70;3.92;;;20.20;41.50;;;;;;3911120;30;20144;-65
2022/04/18 13:21:22;;;;;;;5.05;4.55;;;20.20;41.80;;;;;;3911177;30;20057;-65
2022/04/18 13:23:43;;;;;;;5.15;4.65;;;20.20;41.70;;;;;;3911897;30;20068;-64